sensor_id;sensor_type;location;lat;lon;timestamp;P1;durP1;ratioP1;P2;durP2;ratioP2
38853;SDS011;24606;51.992;4.198;2022-09-28T00:06:51;0.75;;;0.45;;
38853;SDS011;24606;51.992;4.198;2022-09-28T00:11:53;1.25;;;0.43;;
38853;SDS011;24606;51.992;4.198;2022-09-28T00:21:59;0.68;;;0.22;;
38853;SDS011;24606;51.992;4.198;2022-09-28T00:27:00;2.00;;;0.40;;
38853;SDS011;24606;51.992;4.198;2022-09-28T00:37:06;2.80;;;0.57;;
38853;SDS011;24606;51.992;4.198;2022-09-28T00:42:13;0.85;;;0.28;;
38853;SDS011;24606;51.992;4.198;2022-09-28T00:47:28;2.28;;;0.45;;
38853;SDS011;24606;51.992;4.198;2022-09-28T00:52:43;2.33;;;0.65;;
38853;SDS011;24606;51.992;4.198;2022-09-28T00:57:48;3.25;;;0.80;;
38853;SDS011;24606;51.992;4.198;2022-09-28T01:02:55;2.28;;;0.55;;
38853;SDS011;24606;51.992;4.198;2022-09-28T01:07:58;1.42;;;0.60;;
38853;SDS011;24606;51.992;4.198;2022-09-28T01:13:01;1.25;;;0.30;;
38853;SDS011;24606;51.992;4.198;2022-09-28T01:18:07;3.40;;;0.57;;
38853;SDS011;24606;51.992;4.198;2022-09-28T01:23:28;1.25;;;0.40;;
38853;SDS011;24606;51.992;4.198;2022-09-28T01:28:42;3.72;;;0.30;;
38853;SDS011;24606;51.992;4.198;2022-09-28T01:33:46;2.60;;;0.25;;
38853;SDS011;24606;51.992;4.198;2022-09-28T01:38:55;2.95;;;0.50;;
38853;SDS011;24606;51.992;4.198;2022-09-28T01:44:02;1.17;;;0.28;;
38853;SDS011;24606;51.992;4.198;2022-09-28T01:49:09;4.70;;;0.50;;
38853;SDS011;24606;51.992;4.198;2022-09-28T01:54:16;1.58;;;0.50;;
38853;SDS011;24606;51.992;4.198;2022-09-28T01:59:25;6.93;;;0.38;;
38853;SDS011;24606;51.992;4.198;2022-09-28T02:04:30;1.05;;;0.65;;
38853;SDS011;24606;51.992;4.198;2022-09-28T02:09:36;1.77;;;0.63;;
38853;SDS011;24606;51.992;4.198;2022-09-28T02:14:43;3.75;;;0.50;;
38853;SDS011;24606;51.992;4.198;2022-09-28T02:19:49;2.92;;;0.73;;
38853;SDS011;24606;51.992;4.198;2022-09-28T02:24:52;7.53;;;0.80;;
38853;SDS011;24606;51.992;4.198;2022-09-28T02:29:57;2.53;;;0.60;;
38853;SDS011;24606;51.992;4.198;2022-09-28T02:34:59;0.60;;;0.40;;
38853;SDS011;24606;51.992;4.198;2022-09-28T02:40:01;1.77;;;0.47;;
38853;SDS011;24606;51.992;4.198;2022-09-28T02:45:09;5.38;;;0.52;;
38853;SDS011;24606;51.992;4.198;2022-09-28T02:50:20;2.38;;;0.40;;
38853;SDS011;24606;51.992;4.198;2022-09-28T02:55:38;1.42;;;0.40;;
38853;SDS011;24606;51.992;4.198;2022-09-28T03:00:51;0.55;;;0.40;;
38853;SDS011;24606;51.992;4.198;2022-09-28T03:05:58;0.30;;;0.20;;
38853;SDS011;24606;51.992;4.198;2022-09-28T03:11:04;0.95;;;0.40;;
38853;SDS011;24606;51.992;4.198;2022-09-28T03:16:11;2.30;;;0.20;;
38853;SDS011;24606;51.992;4.198;2022-09-28T03:21:15;0.55;;;0.20;;
38853;SDS011;24606;51.992;4.198;2022-09-28T03:26:16;3.72;;;0.60;;
38853;SDS011;24606;51.992;4.198;2022-09-28T03:31:20;0.57;;;0.27;;
38853;SDS011;24606;51.992;4.198;2022-09-28T03:36:22;0.93;;;0.50;;
38853;SDS011;24606;51.992;4.198;2022-09-28T03:41:24;1.60;;;0.30;;
38853;SDS011;24606;51.992;4.198;2022-09-28T03:46:28;0.35;;;0.10;;
38853;SDS011;24606;51.992;4.198;2022-09-28T03:51:30;1.40;;;0.30;;
38853;SDS011;24606;51.992;4.198;2022-09-28T03:56:32;1.88;;;0.10;;
38853;SDS011;24606;51.992;4.198;2022-09-28T04:01:35;1.00;;;0.32;;
38853;SDS011;24606;51.992;4.198;2022-09-28T04:06:37;0.57;;;0.30;;
38853;SDS011;24606;51.992;4.198;2022-09-28T04:11:39;3.45;;;0.38;;
38853;SDS011;24606;51.992;4.198;2022-09-28T04:16:42;1.07;;;0.27;;
38853;SDS011;24606;51.992;4.198;2022-09-28T04:21:44;0.65;;;0.22;;
38853;SDS011;24606;51.992;4.198;2022-09-28T04:26:46;0.73;;;0.33;;
38853;SDS011;24606;51.992;4.198;2022-09-28T04:31:50;0.35;;;0.20;;
38853;SDS011;24606;51.992;4.198;2022-09-28T04:36:54;0.55;;;0.30;;
38853;SDS011;24606;51.992;4.198;2022-09-28T04:41:55;2.03;;;0.30;;
38853;SDS011;24606;51.992;4.198;2022-09-28T04:46:59;0.80;;;0.20;;
38853;SDS011;24606;51.992;4.198;2022-09-28T04:52:00;1.45;;;0.25;;
38853;SDS011;24606;51.992;4.198;2022-09-28T04:57:02;0.90;;;0.20;;
38853;SDS011;24606;51.992;4.198;2022-09-28T05:02:06;1.00;;;0.20;;
38853;SDS011;24606;51.992;4.198;2022-09-28T05:07:08;0.38;;;0.15;;
38853;SDS011;24606;51.992;4.198;2022-09-28T05:12:10;1.17;;;0.20;;
38853;SDS011;24606;51.992;4.198;2022-09-28T05:17:13;0.63;;;0.45;;
38853;SDS011;24606;51.992;4.198;2022-09-28T05:22:15;1.33;;;0.38;;
38853;SDS011;24606;51.992;4.198;2022-09-28T05:27:17;0.80;;;0.35;;
38853;SDS011;24606;51.992;4.198;2022-09-28T05:32:20;1.65;;;0.43;;
38853;SDS011;24606;51.992;4.198;2022-09-28T05:37:22;0.63;;;0.10;;
38853;SDS011;24606;51.992;4.198;2022-09-28T05:42:24;2.50;;;0.20;;
38853;SDS011;24606;51.992;4.198;2022-09-28T05:47:27;1.48;;;0.30;;
38853;SDS011;24606;51.992;4.198;2022-09-28T05:52:29;0.20;;;0.10;;
38853;SDS011;24606;51.992;4.198;2022-09-28T05:57:31;1.80;;;0.20;;
38853;SDS011;24606;51.992;4.198;2022-09-28T06:02:34;0.93;;;0.28;;
38853;SDS011;24606;51.992;4.198;2022-09-28T06:07:36;0.75;;;0.20;;
38853;SDS011;24606;51.992;4.198;2022-09-28T06:12:38;0.50;;;0.30;;
38853;SDS011;24606;51.992;4.198;2022-09-28T06:17:41;0.40;;;0.40;;
38853;SDS011;24606;51.992;4.198;2022-09-28T06:22:43;0.93;;;0.22;;
38853;SDS011;24606;51.992;4.198;2022-09-28T06:27:52;1.90;;;0.70;;
38853;SDS011;24606;51.992;4.198;2022-09-28T06:32:57;2.28;;;0.50;;
38853;SDS011;24606;51.992;4.198;2022-09-28T06:38:00;7.47;;;0.73;;
38853;SDS011;24606;51.992;4.198;2022-09-28T06:43:03;1.00;;;0.57;;
38853;SDS011;24606;51.992;4.198;2022-09-28T06:48:10;0.22;;;0.20;;
38853;SDS011;24606;51.992;4.198;2022-09-28T06:53:14;3.22;;;0.50;;
38853;SDS011;24606;51.992;4.198;2022-09-28T06:58:16;0.80;;;0.22;;
38853;SDS011;24606;51.992;4.198;2022-09-28T07:03:21;1.65;;;0.63;;
38853;SDS011;24606;51.992;4.198;2022-09-28T07:08:23;0.57;;;0.20;;
38853;SDS011;24606;51.992;4.198;2022-09-28T07:13:27;2.38;;;0.35;;
38853;SDS011;24606;51.992;4.198;2022-09-28T07:18:31;3.40;;;0.40;;
38853;SDS011;24606;51.992;4.198;2022-09-28T07:23:33;0.75;;;0.40;;
38853;SDS011;24606;51.992;4.198;2022-09-28T07:28:35;1.08;;;0.40;;
38853;SDS011;24606;51.992;4.198;2022-09-28T07:33:40;0.00;;;0.00;;
38853;SDS011;24606;51.992;4.198;2022-09-28T07:38:42;1.35;;;0.20;;
38853;SDS011;24606;51.992;4.198;2022-09-28T07:43:44;2.50;;;0.30;;
38853;SDS011;24606;51.992;4.198;2022-09-28T07:48:47;3.58;;;0.38;;
38853;SDS011;24606;51.992;4.198;2022-09-28T07:53:50;1.17;;;0.30;;
38853;SDS011;24606;51.992;4.198;2022-09-28T07:58:53;1.75;;;0.45;;
38853;SDS011;24606;51.992;4.198;2022-09-28T08:03:56;2.22;;;0.30;;
38853;SDS011;24606;51.992;4.198;2022-09-28T08:08:58;4.28;;;2.40;;
38853;SDS011;24606;51.992;4.198;2022-09-28T08:14:00;5.55;;;2.40;;
38853;SDS011;24606;51.992;4.198;2022-09-28T08:19:04;1.73;;;1.33;;
38853;SDS011;24606;51.992;4.198;2022-09-28T08:24:06;2.78;;;0.70;;
38853;SDS011;24606;51.992;4.198;2022-09-28T08:29:08;2.42;;;0.57;;
38853;SDS011;24606;51.992;4.198;2022-09-28T08:34:11;0.65;;;0.40;;
38853;SDS011;24606;51.992;4.198;2022-09-28T08:39:13;1.67;;;0.35;;
38853;SDS011;24606;51.992;4.198;2022-09-28T08:44:15;6.80;;;0.40;;
38853;SDS011;24606;51.992;4.198;2022-09-28T08:49:24;1.58;;;0.52;;
38853;SDS011;24606;51.992;4.198;2022-09-28T08:54:36;0.73;;;0.38;;
38853;SDS011;24606;51.992;4.198;2022-09-28T08:59:44;1.85;;;0.57;;
38853;SDS011;24606;51.992;4.198;2022-09-28T09:04:50;1.70;;;0.28;;
38853;SDS011;24606;51.992;4.198;2022-09-28T09:09:56;1.80;;;0.85;;
38853;SDS011;24606;51.992;4.198;2022-09-28T09:15:10;2.53;;;0.70;;
38853;SDS011;24606;51.992;4.198;2022-09-28T09:20:29;1.23;;;0.60;;
38853;SDS011;24606;51.992;4.198;2022-09-28T09:25:39;0.70;;;0.43;;
38853;SDS011;24606;51.992;4.198;2022-09-28T09:30:44;3.15;;;1.92;;
38853;SDS011;24606;51.992;4.198;2022-09-28T09:35:56;26.58;;;12.60;;
38853;SDS011;24606;51.992;4.198;2022-09-28T09:41:11;26.23;;;14.20;;
38853;SDS011;24606;51.992;4.198;2022-09-28T09:46:22;17.77;;;9.13;;
38853;SDS011;24606;51.992;4.198;2022-09-28T09:51:36;7.05;;;4.35;;
38853;SDS011;24606;51.992;4.198;2022-09-28T09:56:44;7.53;;;4.25;;
38853;SDS011;24606;51.992;4.198;2022-09-28T10:01:52;5.45;;;2.25;;
38853;SDS011;24606;51.992;4.198;2022-09-28T10:06:57;3.70;;;1.75;;
38853;SDS011;24606;51.992;4.198;2022-09-28T10:12:06;2.03;;;1.23;;
38853;SDS011;24606;51.992;4.198;2022-09-28T10:17:09;3.40;;;1.30;;
38853;SDS011;24606;51.992;4.198;2022-09-28T10:22:15;2.65;;;1.20;;
38853;SDS011;24606;51.992;4.198;2022-09-28T10:27:21;1.40;;;0.80;;
38853;SDS011;24606;51.992;4.198;2022-09-28T10:32:26;3.22;;;0.82;;
38853;SDS011;24606;51.992;4.198;2022-09-28T10:37:46;2.50;;;1.10;;
38853;SDS011;24606;51.992;4.198;2022-09-28T10:42:52;0.68;;;0.57;;
38853;SDS011;24606;51.992;4.198;2022-09-28T10:48:01;5.28;;;0.52;;
38853;SDS011;24606;51.992;4.198;2022-09-28T10:53:11;3.72;;;0.45;;
38853;SDS011;24606;51.992;4.198;2022-09-28T10:58:23;1.52;;;0.88;;
38853;SDS011;24606;51.992;4.198;2022-09-28T11:03:26;2.95;;;0.50;;
38853;SDS011;24606;51.992;4.198;2022-09-28T11:08:32;1.50;;;0.80;;
38853;SDS011;24606;51.992;4.198;2022-09-28T11:13:41;4.25;;;0.93;;
38853;SDS011;24606;51.992;4.198;2022-09-28T11:18:44;5.05;;;0.70;;
38853;SDS011;24606;51.992;4.198;2022-09-28T11:23:57;5.37;;;2.43;;
38853;SDS011;24606;51.992;4.198;2022-09-28T11:29:16;1.20;;;0.57;;
38853;SDS011;24606;51.992;4.198;2022-09-28T11:34:24;0.88;;;0.50;;
38853;SDS011;24606;51.992;4.198;2022-09-28T11:39:37;6.80;;;3.13;;
38853;SDS011;24606;51.992;4.198;2022-09-28T11:44:46;4.50;;;1.95;;
38853;SDS011;24606;51.992;4.198;2022-09-28T11:49:50;8.02;;;4.38;;
38853;SDS011;24606;51.992;4.198;2022-09-28T11:55:00;7.55;;;4.05;;
38853;SDS011;24606;51.992;4.198;2022-09-28T12:00:06;6.10;;;2.67;;
38853;SDS011;24606;51.992;4.198;2022-09-28T12:05:15;0.90;;;0.43;;
38853;SDS011;24606;51.992;4.198;2022-09-28T12:10:28;4.97;;;1.13;;
38853;SDS011;24606;51.992;4.198;2022-09-28T12:15:39;1.73;;;0.70;;
38853;SDS011;24606;51.992;4.198;2022-09-28T12:20:45;6.15;;;2.10;;
38853;SDS011;24606;51.992;4.198;2022-09-28T12:25:52;5.07;;;0.73;;
38853;SDS011;24606;51.992;4.198;2022-09-28T12:30:59;3.22;;;1.95;;
38853;SDS011;24606;51.992;4.198;2022-09-28T12:36:13;7.88;;;3.38;;
38853;SDS011;24606;51.992;4.198;2022-09-28T12:41:33;2.92;;;1.67;;
38853;SDS011;24606;51.992;4.198;2022-09-28T12:46:48;5.30;;;2.40;;
38853;SDS011;24606;51.992;4.198;2022-09-28T12:52:07;5.97;;;4.18;;
38853;SDS011;24606;51.992;4.198;2022-09-28T12:57:33;9.48;;;4.18;;
38853;SDS011;24606;51.992;4.198;2022-09-28T13:02:45;3.97;;;1.27;;
38853;SDS011;24606;51.992;4.198;2022-09-28T13:08:08;5.05;;;1.42;;
38853;SDS011;24606;51.992;4.198;2022-09-28T13:13:18;6.93;;;3.53;;
38853;SDS011;24606;51.992;4.198;2022-09-28T13:18:31;6.15;;;2.80;;
38853;SDS011;24606;51.992;4.198;2022-09-28T13:23:40;4.47;;;1.20;;
38853;SDS011;24606;51.992;4.198;2022-09-28T13:28:45;2.67;;;1.60;;
38853;SDS011;24606;51.992;4.198;2022-09-28T13:33:49;9.60;;;1.65;;
38853;SDS011;24606;51.992;4.198;2022-09-28T13:38:52;2.15;;;1.20;;
38853;SDS011;24606;51.992;4.198;2022-09-28T13:44:09;5.47;;;1.58;;
38853;SDS011;24606;51.992;4.198;2022-09-28T13:49:25;5.45;;;2.17;;
38853;SDS011;24606;51.992;4.198;2022-09-28T13:54:44;6.43;;;3.25;;
38853;SDS011;24606;51.992;4.198;2022-09-28T14:00:14;7.15;;;3.83;;
38853;SDS011;24606;51.992;4.198;2022-09-28T14:05:31;8.80;;;3.83;;
38853;SDS011;24606;51.992;4.198;2022-09-28T14:10:46;2.65;;;1.50;;
38853;SDS011;24606;51.992;4.198;2022-09-28T14:15:52;8.30;;;2.42;;
38853;SDS011;24606;51.992;4.198;2022-09-28T14:20:57;5.03;;;2.67;;
38853;SDS011;24606;51.992;4.198;2022-09-28T14:26:18;5.50;;;2.95;;
38853;SDS011;24606;51.992;4.198;2022-09-28T14:31:42;11.93;;;5.57;;
38853;SDS011;24606;51.992;4.198;2022-09-28T14:36:46;11.57;;;5.07;;
38853;SDS011;24606;51.992;4.198;2022-09-28T14:42:07;6.00;;;2.50;;
38853;SDS011;24606;51.992;4.198;2022-09-28T14:47:32;5.07;;;2.55;;
38853;SDS011;24606;51.992;4.198;2022-09-28T14:52:39;7.70;;;4.15;;
38853;SDS011;24606;51.992;4.198;2022-09-28T14:57:50;6.82;;;3.03;;
38853;SDS011;24606;51.992;4.198;2022-09-28T15:02:59;9.77;;;3.90;;
38853;SDS011;24606;51.992;4.198;2022-09-28T15:08:03;5.18;;;2.35;;
38853;SDS011;24606;51.992;4.198;2022-09-28T15:13:14;6.15;;;2.33;;
38853;SDS011;24606;51.992;4.198;2022-09-28T15:18:36;4.65;;;2.20;;
38853;SDS011;24606;51.992;4.198;2022-09-28T15:24:22;3.95;;;1.23;;
38853;SDS011;24606;51.992;4.198;2022-09-28T15:29:25;4.25;;;1.13;;
38853;SDS011;24606;51.992;4.198;2022-09-28T15:34:32;2.17;;;0.80;;
38853;SDS011;24606;51.992;4.198;2022-09-28T15:39:53;4.78;;;1.15;;
38853;SDS011;24606;51.992;4.198;2022-09-28T15:44:59;4.72;;;0.90;;
38853;SDS011;24606;51.992;4.198;2022-09-28T15:50:25;3.95;;;1.02;;
38853;SDS011;24606;51.992;4.198;2022-09-28T15:55:29;1.10;;;0.85;;
38853;SDS011;24606;51.992;4.198;2022-09-28T16:00:33;3.92;;;1.05;;
38853;SDS011;24606;51.992;4.198;2022-09-28T16:05:38;3.03;;;1.65;;
38853;SDS011;24606;51.992;4.198;2022-09-28T16:10:49;5.95;;;1.83;;
38853;SDS011;24606;51.992;4.198;2022-09-28T16:15:56;2.75;;;0.82;;
38853;SDS011;24606;51.992;4.198;2022-09-28T16:26:28;7.70;;;2.10;;
38853;SDS011;24606;51.992;4.198;2022-09-28T16:31:33;1.95;;;1.10;;
38853;SDS011;24606;51.992;4.198;2022-09-28T16:41:44;1.75;;;0.80;;
38853;SDS011;24606;51.992;4.198;2022-09-28T16:46:48;2.20;;;0.60;;
38853;SDS011;24606;51.992;4.198;2022-09-28T16:51:54;1.50;;;0.60;;
38853;SDS011;24606;51.992;4.198;2022-09-28T16:56:56;2.92;;;1.55;;
38853;SDS011;24606;51.992;4.198;2022-09-28T17:01:58;4.93;;;2.15;;
38853;SDS011;24606;51.992;4.198;2022-09-28T17:07:01;1.95;;;0.82;;
38853;SDS011;24606;51.992;4.198;2022-09-28T17:12:04;2.83;;;1.05;;
38853;SDS011;24606;51.992;4.198;2022-09-28T17:17:12;1.73;;;0.60;;
38853;SDS011;24606;51.992;4.198;2022-09-28T17:27:17;4.10;;;1.85;;
38853;SDS011;24606;51.992;4.198;2022-09-28T17:32:20;12.60;;;5.38;;
38853;SDS011;24606;51.992;4.198;2022-09-28T17:37:26;13.25;;;7.22;;
38853;SDS011;24606;51.992;4.198;2022-09-28T17:42:33;16.23;;;9.35;;
38853;SDS011;24606;51.992;4.198;2022-09-28T17:47:35;15.70;;;8.52;;
38853;SDS011;24606;51.992;4.198;2022-09-28T17:52:38;14.65;;;8.15;;
38853;SDS011;24606;51.992;4.198;2022-09-28T17:57:40;18.77;;;8.07;;
38853;SDS011;24606;51.992;4.198;2022-09-28T18:02:42;20.85;;;11.60;;
38853;SDS011;24606;51.992;4.198;2022-09-28T18:07:46;20.23;;;10.68;;
38853;SDS011;24606;51.992;4.198;2022-09-28T18:12:49;16.88;;;10.05;;
38853;SDS011;24606;51.992;4.198;2022-09-28T18:22:54;19.77;;;10.75;;
38853;SDS011;24606;51.992;4.198;2022-09-28T18:27:56;21.38;;;9.50;;
38853;SDS011;24606;51.992;4.198;2022-09-28T18:32:59;22.48;;;12.25;;
38853;SDS011;24606;51.992;4.198;2022-09-28T18:38:03;14.73;;;8.93;;
38853;SDS011;24606;51.992;4.198;2022-09-28T18:43:05;21.65;;;11.02;;
38853;SDS011;24606;51.992;4.198;2022-09-28T18:48:07;15.30;;;6.78;;
38853;SDS011;24606;51.992;4.198;2022-09-28T18:53:10;19.33;;;10.13;;
38853;SDS011;24606;51.992;4.198;2022-09-28T18:58:12;32.58;;;12.98;;
38853;SDS011;24606;51.992;4.198;2022-09-28T19:03:14;15.95;;;9.15;;
38853;SDS011;24606;51.992;4.198;2022-09-28T19:08:17;20.17;;;10.48;;
38853;SDS011;24606;51.992;4.198;2022-09-28T19:13:19;22.67;;;9.95;;
38853;SDS011;24606;51.992;4.198;2022-09-28T19:18:21;19.60;;;10.27;;
38853;SDS011;24606;51.992;4.198;2022-09-28T19:23:24;19.40;;;9.52;;
38853;SDS011;24606;51.992;4.198;2022-09-28T19:28:26;18.45;;;11.30;;
38853;SDS011;24606;51.992;4.198;2022-09-28T19:33:28;23.55;;;12.40;;
38853;SDS011;24606;51.992;4.198;2022-09-28T19:43:35;19.88;;;10.75;;
38853;SDS011;24606;51.992;4.198;2022-09-28T19:48:37;18.60;;;9.93;;
38853;SDS011;24606;51.992;4.198;2022-09-28T19:53:43;21.88;;;10.32;;
38853;SDS011;24606;51.992;4.198;2022-09-28T19:58:44;22.00;;;10.60;;
38853;SDS011;24606;51.992;4.198;2022-09-28T20:03:46;16.27;;;8.65;;
38853;SDS011;24606;51.992;4.198;2022-09-28T20:08:49;12.45;;;5.68;;
38853;SDS011;24606;51.992;4.198;2022-09-28T20:13:51;6.15;;;3.13;;
38853;SDS011;24606;51.992;4.198;2022-09-28T20:23:58;11.32;;;2.65;;
38853;SDS011;24606;51.992;4.198;2022-09-28T20:29:00;4.43;;;1.80;;
38853;SDS011;24606;51.992;4.198;2022-09-28T20:34:03;4.90;;;2.28;;
38853;SDS011;24606;51.992;4.198;2022-09-28T20:39:08;3.05;;;1.48;;
38853;SDS011;24606;51.992;4.198;2022-09-28T20:44:11;3.72;;;1.80;;
38853;SDS011;24606;51.992;4.198;2022-09-28T20:54:16;7.07;;;1.83;;
38853;SDS011;24606;51.992;4.198;2022-09-28T20:59:18;4.90;;;1.48;;
38853;SDS011;24606;51.992;4.198;2022-09-28T21:04:21;6.20;;;1.50;;
38853;SDS011;24606;51.992;4.198;2022-09-28T21:09:25;8.02;;;1.27;;
38853;SDS011;24606;51.992;4.198;2022-09-28T21:14:28;5.35;;;1.63;;
38853;SDS011;24606;51.992;4.198;2022-09-28T21:19:30;4.47;;;1.38;;
38853;SDS011;24606;51.992;4.198;2022-09-28T21:24:33;4.45;;;1.58;;
38853;SDS011;24606;51.992;4.198;2022-09-28T21:29:36;3.55;;;1.38;;
38853;SDS011;24606;51.992;4.198;2022-09-28T21:34:37;6.05;;;1.20;;
38853;SDS011;24606;51.992;4.198;2022-09-28T21:39:40;4.57;;;1.17;;
38853;SDS011;24606;51.992;4.198;2022-09-28T21:44:43;4.15;;;1.60;;
38853;SDS011;24606;51.992;4.198;2022-09-28T21:49:44;2.00;;;1.30;;
38853;SDS011;24606;51.992;4.198;2022-09-28T21:54:48;2.78;;;1.23;;
38853;SDS011;24606;51.992;4.198;2022-09-28T21:59:49;4.57;;;1.25;;
38853;SDS011;24606;51.992;4.198;2022-09-28T22:04:51;2.40;;;1.00;;
38853;SDS011;24606;51.992;4.198;2022-09-28T22:09:54;3.97;;;1.25;;
38853;SDS011;24606;51.992;4.198;2022-09-28T22:14:56;0.93;;;0.80;;
38853;SDS011;24606;51.992;4.198;2022-09-28T22:19:58;3.92;;;1.17;;
38853;SDS011;24606;51.992;4.198;2022-09-28T22:25:02;1.88;;;1.00;;
38853;SDS011;24606;51.992;4.198;2022-09-28T22:30:04;3.58;;;1.20;;
38853;SDS011;24606;51.992;4.198;2022-09-28T22:35:07;1.45;;;0.90;;
38853;SDS011;24606;51.992;4.198;2022-09-28T22:40:11;1.92;;;1.00;;
38853;SDS011;24606;51.992;4.198;2022-09-28T22:45:13;2.63;;;1.00;;
38853;SDS011;24606;51.992;4.198;2022-09-28T22:50:15;1.48;;;0.80;;
38853;SDS011;24606;51.992;4.198;2022-09-28T22:55:18;5.18;;;1.23;;
38853;SDS011;24606;51.992;4.198;2022-09-28T23:00:20;1.75;;;0.98;;
38853;SDS011;24606;51.992;4.198;2022-09-28T23:05:22;2.28;;;0.85;;
38853;SDS011;24606;51.992;4.198;2022-09-28T23:10:25;2.13;;;1.15;;
38853;SDS011;24606;51.992;4.198;2022-09-28T23:15:27;1.17;;;0.80;;
38853;SDS011;24606;51.992;4.198;2022-09-28T23:20:29;1.27;;;0.90;;
38853;SDS011;24606;51.992;4.198;2022-09-28T23:25:32;4.22;;;1.20;;
38853;SDS011;24606;51.992;4.198;2022-09-28T23:30:34;2.05;;;1.35;;
38853;SDS011;24606;51.992;4.198;2022-09-28T23:35:36;1.23;;;0.80;;
38853;SDS011;24606;51.992;4.198;2022-09-28T23:40:39;1.23;;;0.73;;
38853;SDS011;24606;51.992;4.198;2022-09-28T23:45:41;1.73;;;0.77;;
38853;SDS011;24606;51.992;4.198;2022-09-28T23:50:43;1.17;;;0.75;;
38853;SDS011;24606;51.992;4.198;2022-09-28T23:55:47;0.70;;;0.65;;
